Time;durP1;ratioP1;P1;durP2;ratioP2;P2;SDS_P1;SDS_P2;PMS_P1;PMS_P2;Temp;Humidity;BMP_temperature;BMP_pressure;BME280_temperature;BME280_humidity;BME280_pressure;Samples;Min_cycle;Max_cycle;Signal;HPM_P1;HPM_P2
2023/08/03 00:01:38;;;;;;;0.20;0.20;;;;;;;18.24;74.22;98647.28;5178082;28;20463;-87
2023/08/03 00:04:29;;;;;;;0.20;0.20;;;;;;;18.14;74.31;98638.50;5169511;28;20417;-88
2023/08/03 00:07:20;;;;;;;3.30;0.95;;;;;;;18.09;74.57;98646.06;5183408;28;20034;-88
2023/08/03 00:10:11;;;;;;;0.52;0.52;;;;;;;18.12;75.09;98639.63;5159489;28;20117;-88
2023/08/03 00:13:02;;;;;;;0.85;0.40;;;;;;;18.28;74.59;98644.38;5175098;28;20038;-88
2023/08/03 00:15:53;;;;;;;0.20;0.20;;;;;;;18.21;74.78;98639.63;5172660;28;20413;-88
2023/08/03 00:18:43;;;;;;;0.20;0.20;;;;;;;18.04;75.65;98650.94;5174136;28;20061;-88
2023/08/03 00:21:34;;;;;;;0.38;0.38;;;;;;;18.06;75.56;98654.28;5172771;28;20394;-89
2023/08/03 00:24:25;;;;;;;1.65;0.70;;;;;;;18.04;75.89;98664.22;5173486;28;20049;-87
2023/08/03 00:27:16;;;;;;;1.30;0.60;;;;;;;17.99;76.14;98655.81;5186380;28;20092;-88
2023/08/03 00:30:07;;;;;;;0.20;0.20;;;;;;;18.03;76.94;98673.16;5159909;28;20543;-88
2023/08/03 00:32:57;;;;;;;0.20;0.20;;;;;;;17.92;77.83;98666.97;5174409;28;20302;-88
2023/08/03 00:35:48;;;;;;;9.65;0.47;;;;;;;18.02;77.60;98674.94;5163726;28;20075;-86
2023/08/03 00:38:39;;;;;;;0.20;0.20;;;;;;;17.99;77.47;98661.13;5166128;28;20464;-88
2023/08/03 00:41:30;;;;;;;0.60;0.60;;;;;;;18.04;76.68;98680.13;5163934;28;20034;-88
2023/08/03 00:44:21;;;;;;;0.30;0.30;;;;;;;18.02;76.82;98677.59;5165615;28;20413;-87
2023/08/03 00:47:12;;;;;;;0.20;0.20;;;;;;;18.00;78.15;98684.88;5162022;28;20037;-87
2023/08/03 00:50:03;;;;;;;0.20;0.20;;;;;;;17.88;78.37;98676.19;5170394;28;20049;-88
2023/08/03 00:52:54;;;;;;;0.20;0.20;;;;;;;17.74;79.74;98687.19;5176583;28;20034;-88
2023/08/03 00:55:45;;;;;;;0.20;0.20;;;;;;;17.74;79.63;98689.84;5182976;28;20111;-89
2023/08/03 00:58:35;;;;;;;0.30;0.30;;;;;;;17.70;79.91;98691.09;5166883;28;20381;-88
2023/08/03 01:01:26;;;;;;;0.40;0.40;;;;;;;17.68;79.85;98691.25;5164492;28;20056;-89
2023/08/03 01:04:17;;;;;;;0.20;0.20;;;;;;;17.61;80.86;98709.50;5162965;28;20038;-87
2023/08/03 01:07:08;;;;;;;0.28;0.28;;;;;;;17.69;80.02;98713.28;5176195;28;20041;-87
2023/08/03 01:09:59;;;;;;;0.20;0.20;;;;;;;17.64;80.42;98720.81;5171378;28;20042;-88
2023/08/03 01:12:50;;;;;;;0.30;0.30;;;;;;;17.44;81.07;98720.75;5160710;28;20637;-88
2023/08/03 01:15:41;;;;;;;0.40;0.40;;;;;;;17.50;80.80;98725.50;5169581;28;20038;-88
2023/08/03 01:18:32;;;;;;;0.20;0.20;;;;;;;17.62;80.56;98729.75;5179365;28;20022;-88
2023/08/03 01:21:24;;;;;;;0.20;0.20;;;;;;;17.40;81.25;98737.88;5175395;28;20046;-88
2023/08/03 01:24:15;;;;;;;0.30;0.30;;;;;;;17.42;81.28;98750.06;5163686;28;20755;-88
2023/08/03 01:27:06;;;;;;;0.20;0.20;;;;;;;17.31;81.26;98750.16;5179786;28;20049;-88
2023/08/03 01:29:57;;;;;;;0.20;0.20;;;;;;;17.38;81.44;98745.16;5163456;28;20034;-89
2023/08/03 01:32:48;;;;;;;0.20;0.20;;;;;;;17.41;81.01;98760.78;5191826;28;20045;-88
2023/08/03 01:35:39;;;;;;;0.25;0.25;;;;;;;17.47;80.46;98762.91;5176194;28;20054;-87
2023/08/03 01:38:30;;;;;;;0.68;0.68;;;;;;;17.40;80.74;98762.59;5183508;28;20566;-88
2023/08/03 01:41:23;;;;;;;0.20;0.20;;;;;;;17.37;80.74;98762.88;5171004;28;20102;-88
2023/08/03 01:44:17;;;;;;;0.35;0.35;;;;;;;17.38;80.89;98763.72;5179155;28;20041;-88
2023/08/03 01:47:09;;;;;;;0.20;0.20;;;;;;;17.48;80.08;98774.34;5164662;28;20108;-88
2023/08/03 01:50:01;;;;;;;0.40;0.40;;;;;;;17.34;80.69;98772.91;5159971;28;20693;-88
2023/08/03 01:52:51;;;;;;;0.52;0.35;;;;;;;17.37;80.90;98776.13;5163518;28;20117;-89
2023/08/03 01:55:45;;;;;;;0.55;0.55;;;;;;;17.30;80.06;98767.88;5161366;28;20062;-88
2023/08/03 01:58:36;;;;;;;0.65;0.65;;;;;;;17.35;80.14;98780.72;5175450;28;20131;-88
2023/08/03 02:01:26;;;;;;;0.35;0.35;;;;;;;17.32;80.13;98786.28;5177532;28;20058;-89
2023/08/03 02:04:17;;;;;;;1.75;1.35;;;;;;;17.25;79.76;98778.00;5161061;28;20038;-88
2023/08/03 02:07:14;;;;;;;0.20;0.20;;;;;;;17.37;79.73;98783.25;5156417;28;20429;-88
2023/08/03 02:10:05;;;;;;;3.10;0.57;;;;;;;17.38;79.59;98780.44;5191414;28;20033;-87
2023/08/03 02:12:56;;;;;;;0.20;0.20;;;;;;;17.26;79.87;98781.53;5158484;28;20390;-88
2023/08/03 02:15:47;;;;;;;0.20;0.20;;;;;;;17.34;79.12;98794.09;5172421;28;20037;-88
2023/08/03 02:18:39;;;;;;;0.28;0.28;;;;;;;17.41;78.88;98795.25;5175573;28;20026;-89
2023/08/03 02:21:29;;;;;;;0.35;0.35;;;;;;;17.35;79.12;98790.47;5161249;28;20034;-88
2023/08/03 02:24:20;;;;;;;0.60;0.60;;;;;;;17.39;79.18;98798.03;5159247;28;20122;-88
2023/08/03 02:27:11;;;;;;;0.45;0.45;;;;;;;17.44;78.51;98805.59;5164753;28;20683;-88
2023/08/03 02:30:02;;;;;;;0.30;0.30;;;;;;;17.28;79.22;98801.63;5176142;28;20042;-88
2023/08/03 02:32:53;;;;;;;0.20;0.20;;;;;;;17.32;78.84;98799.53;5160510;28;20077;-88
2023/08/03 02:35:44;;;;;;;0.20;0.20;;;;;;;17.34;78.84;98805.56;5172808;28;20034;-89
2023/08/03 02:38:34;;;;;;;0.20;0.20;;;;;;;17.28;79.02;98801.63;5176560;28;20062;-88
2023/08/03 02:41:25;;;;;;;0.20;0.20;;;;;;;17.28;79.00;98811.34;5175056;28;20474;-88
2023/08/03 02:44:16;;;;;;;0.40;0.40;;;;;;;17.29;78.67;98805.94;5156178;28;20041;-86
2023/08/03 02:47:07;;;;;;;0.20;0.20;;;;;;;17.43;78.34;98822.47;5159367;28;20421;-87
2023/08/03 02:49:58;;;;;;;0.20;0.20;;;;;;;17.32;78.39;98820.75;5162139;28;20034;-88
2023/08/03 02:52:49;;;;;;;0.45;0.45;;;;;;;17.21;78.73;98828.75;5158338;28;20066;-88
2023/08/03 02:55:40;;;;;;;0.20;0.20;;;;;;;17.24;78.58;98832.00;5162550;28;20034;-88
2023/08/03 02:58:31;;;;;;;3.00;1.83;;;;;;;17.29;78.86;98829.81;5175704;28;20026;-87
2023/08/03 03:01:22;;;;;;;0.30;0.30;;;;;;;17.33;78.33;98845.44;5154323;28;20030;-88
2023/08/03 03:04:13;;;;;;;0.30;0.30;;;;;;;17.29;78.82;98844.84;5172510;28;20096;-88
2023/08/03 03:07:04;;;;;;;0.30;0.30;;;;;;;17.36;78.49;98848.66;5160775;28;20061;-88
2023/08/03 03:09:55;;;;;;;0.22;0.22;;;;;;;17.34;78.73;98847.09;5171662;28;20042;-89
2023/08/03 03:12:46;;;;;;;0.30;0.30;;;;;;;17.35;78.44;98849.66;5181077;28;20492;-88
2023/08/03 03:15:37;;;;;;;0.50;0.50;;;;;;;17.44;78.25;98845.34;5173423;28;20042;-89
2023/08/03 03:18:27;;;;;;;0.50;0.50;;;;;;;17.44;78.00;98858.63;5170895;28;20327;-87
2023/08/03 03:21:19;;;;;;;0.30;0.30;;;;;;;17.43;77.64;98849.84;5160628;28;20034;-87
2023/08/03 03:24:10;;;;;;;0.20;0.20;;;;;;;17.29;78.55;98851.00;5157427;28;20041;-88
2023/08/03 03:27:01;;;;;;;0.20;0.20;;;;;;;17.33;78.72;98856.03;5174545;28;20034;-87
2023/08/03 03:29:52;;;;;;;0.30;0.30;;;;;;;17.32;78.18;98860.50;5169927;28;20096;-88
2023/08/03 03:32:44;;;;;;;2.17;1.45;;;;;;;17.30;78.29;98868.59;5157043;28;20034;-88
2023/08/03 03:35:35;;;;;;;0.40;0.40;;;;;;;17.27;78.68;98860.06;5159716;28;20049;-90
2023/08/03 03:38:25;;;;;;;0.20;0.20;;;;;;;17.38;78.20;98859.16;5164438;28;20040;-89
2023/08/03 03:41:16;;;;;;;0.20;0.20;;;;;;;17.29;78.36;98864.25;5164431;28;20107;-88
2023/08/03 03:44:07;;;;;;;0.20;0.20;;;;;;;17.32;78.54;98871.09;5171114;28;20453;-88
2023/08/03 03:46:58;;;;;;;0.30;0.30;;;;;;;17.33;78.47;98877.22;5174563;28;20046;-88
2023/08/03 03:49:49;;;;;;;0.20;0.20;;;;;;;17.33;78.70;98872.78;5170029;28;20034;-88
2023/08/03 03:52:39;;;;;;;36.60;4.03;;;;;;;17.40;78.13;98883.69;5172262;28;20457;-88
2023/08/03 03:55:30;;;;;;;0.20;0.20;;;;;;;17.34;78.40;98885.06;5163218;28;20065;-89
2023/08/03 03:58:21;;;;;;;0.20;0.20;;;;;;;17.38;78.57;98891.78;5174515;28;20544;-88
2023/08/03 04:01:12;;;;;;;0.68;0.45;;;;;;;17.39;78.40;98884.69;5166827;28;20042;-88
2023/08/03 04:04:03;;;;;;;0.30;0.30;;;;;;;17.34;79.05;98889.53;5170335;28;20508;-87
2023/08/03 04:06:54;;;;;;;0.30;0.30;;;;;;;17.30;78.99;98884.50;5169034;28;20126;-88
2023/08/03 04:09:44;;;;;;;0.20;0.20;;;;;;;17.36;78.47;98887.59;5171407;28;20057;-87
2023/08/03 04:12:35;;;;;;;0.30;0.30;;;;;;;17.26;78.65;98879.59;5176113;28;20065;-90
2023/08/03 04:15:26;;;;;;;0.20;0.20;;;;;;;17.16;79.31;98876.84;5181384;28;20472;-90
2023/08/03 04:18:17;;;;;;;0.20;0.20;;;;;;;17.29;78.61;98874.84;5193225;28;20062;-88
2023/08/03 04:21:07;;;;;;;0.30;0.30;;;;;;;17.27;78.75;98879.44;5173099;28;20466;-87
2023/08/03 04:23:58;;;;;;;0.73;0.73;;;;;;;17.25;78.67;98881.38;5156006;28;20045;-87
2023/08/03 04:26:49;;;;;;;0.20;0.20;;;;;;;17.28;78.78;98883.78;5176154;28;20241;-88
2023/08/03 04:29:40;;;;;;;0.20;0.20;;;;;;;17.34;78.15;98889.53;5177053;28;20084;-89
2023/08/03 04:32:30;;;;;;;0.50;0.50;;;;;;;17.33;78.35;98899.28;5184873;28;20026;-88
2023/08/03 04:35:21;;;;;;;0.20;0.20;;;;;;;17.22;78.26;98892.25;5197727;28;20042;-88
2023/08/03 04:38:12;;;;;;;0.20;0.20;;;;;;;17.24;78.70;98895.59;5181241;28;20033;-88
2023/08/03 04:41:03;;;;;;;0.45;0.45;;;;;;;17.23;78.81;98904.50;5163834;28;20415;-88
2023/08/03 04:43:54;;;;;;;0.20;0.20;;;;;;;17.21;79.03;98909.13;5176431;28;20173;-89
2023/08/03 04:46:45;;;;;;;13.65;1.65;;;;;;;17.25;78.41;98910.53;5161332;28;20057;-89
2023/08/03 04:49:35;;;;;;;0.35;0.35;;;;;;;17.33;78.37;98922.28;5171684;28;20054;-90
2023/08/03 04:52:26;;;;;;;0.20;0.20;;;;;;;17.22;78.91;98918.75;5180400;28;20092;-89
2023/08/03 04:55:17;;;;;;;0.20;0.20;;;;;;;17.22;79.07;98917.91;5203791;28;20025;-91
2023/08/03 04:58:07;;;;;;;0.60;0.60;;;;;;;17.33;78.98;98919.66;5198208;28;20022;-90
2023/08/03 05:00:58;;;;;;;0.30;0.30;;;;;;;17.35;78.76;98923.88;5185334;28;20026;-91
2023/08/03 05:03:49;;;;;;;0.20;0.20;;;;;;;17.42;78.25;98927.69;5162526;28;20042;-88
2023/08/03 05:06:40;;;;;;;0.20;0.20;;;;;;;17.41;78.18;98923.34;5161949;28;20069;-89
2023/08/03 05:09:31;;;;;;;0.20;0.20;;;;;;;17.35;78.87;98926.53;5166462;28;20122;-88
2023/08/03 05:12:21;;;;;;;0.63;0.63;;;;;;;17.41;78.47;98922.47;5167575;28;20053;-89
2023/08/03 05:15:12;;;;;;;0.25;0.25;;;;;;;17.44;77.93;98924.88;5178545;28;20034;-87
2023/08/03 05:18:03;;;;;;;0.20;0.20;;;;;;;17.37;78.71;98923.72;5175128;28;20026;-88
2023/08/03 05:20:54;;;;;;;0.20;0.20;;;;;;;17.38;78.16;98933.38;5179509;28;20085;-89
2023/08/03 05:23:48;;;;;;;0.20;0.20;;;;;;;17.35;78.44;98938.91;5176401;28;20026;-88
2023/08/03 05:26:38;;;;;;;0.20;0.20;;;;;;;17.38;78.10;98949.28;5159790;28;20026;-88
2023/08/03 05:29:29;;;;;;;0.20;0.20;;;;;;;17.37;78.28;98948.41;5175451;28;20465;-88
2023/08/03 05:32:24;;;;;;;0.20;0.20;;;;;;;17.35;79.68;98946.88;5172362;28;20049;-88
2023/08/03 05:35:16;;;;;;;0.20;0.20;;;;;;;17.17;81.60;98965.16;5161814;28;20658;-88
2023/08/03 05:38:07;;;;;;;1.45;0.85;;;;;;;17.33;81.29;98964.69;5171181;28;20540;-89
2023/08/03 05:40:58;;;;;;;0.30;0.30;;;;;;;17.25;82.17;98965.34;5173382;28;20521;-89
2023/08/03 05:43:49;;;;;;;1.27;1.10;;;;;;;17.28;81.33;98960.63;5182185;28;20038;-89
2023/08/03 05:46:39;;;;;;;0.20;0.20;;;;;;;17.18;82.07;98965.00;5167847;28;20026;-89
2023/08/03 05:49:30;;;;;;;0.20;0.20;;;;;;;16.97;84.21;98963.19;5162238;28;20026;-88
2023/08/03 05:52:21;;;;;;;0.20;0.20;;;;;;;17.04;84.46;98968.78;5159327;28;20041;-89
2023/08/03 05:55:13;;;;;;;0.20;0.20;;;;;;;17.00;84.60;98967.38;5171117;28;20030;-89
2023/08/03 05:58:05;;;;;;;0.20;0.20;;;;;;;17.05;84.94;98977.59;5163364;28;20108;-89
2023/08/03 06:00:55;;;;;;;0.20;0.20;;;;;;;16.92;85.84;98973.25;5168904;28;20449;-89
2023/08/03 06:03:47;;;;;;;0.20;0.20;;;;;;;16.99;85.13;98969.19;5175478;28;20067;-89
2023/08/03 06:06:38;;;;;;;0.20;0.20;;;;;;;16.89;85.98;98978.84;5158283;28;20080;-88
2023/08/03 06:09:28;;;;;;;0.20;0.20;;;;;;;16.98;85.18;98982.56;5173974;28;20346;-89
2023/08/03 06:12:19;;;;;;;0.20;0.20;;;;;;;16.89;86.04;98978.84;5157346;28;20045;-89
2023/08/03 06:15:10;;;;;;;0.20;0.20;;;;;;;16.76;86.04;98994.88;5171774;28;20030;-89
2023/08/03 06:18:07;;;;;;;0.20;0.20;;;;;;;17.00;84.62;98999.19;5173797;28;20030;-88
2023/08/03 06:20:58;;;;;;;0.20;0.20;;;;;;;16.79;86.13;99009.66;5169950;28;20109;-89
2023/08/03 06:23:51;;;;;;;0.30;0.30;;;;;;;16.83;86.34;99013.75;5178211;28;20574;-88
2023/08/03 06:26:44;;;;;;;0.20;0.20;;;;;;;16.81;87.16;99019.16;5171417;28;20033;-88
2023/08/03 06:29:37;;;;;;;0.20;0.20;;;;;;;16.93;86.49;99029.78;5173552;28;20546;-87
2023/08/03 06:32:31;;;;;;;0.20;0.20;;;;;;;16.81;86.90;99021.00;5168574;28;20129;-86
2023/08/03 06:35:43;;;;;;;0.22;0.22;;;;;;;16.68;88.31;99034.38;5154788;28;20038;-87
2023/08/03 06:38:35;;;;;;;0.22;0.22;;;;;;;16.60;88.23;99042.91;5167233;28;20057;-86
2023/08/03 06:41:27;;;;;;;0.30;0.30;;;;;;;16.54;89.03;99054.00;5169253;28;20038;-87
2023/08/03 06:44:17;;;;;;;0.20;0.20;;;;;;;16.74;88.46;99038.31;5167942;28;20137;-86
2023/08/03 06:47:08;;;;;;;0.15;0.15;;;;;;;16.73;88.46;99044.59;5156425;28;20026;-84
2023/08/03 06:49:59;;;;;;;0.30;0.30;;;;;;;16.71;88.59;99046.50;5165934;28;20335;-85
2023/08/03 06:52:51;;;;;;;0.45;0.45;;;;;;;16.66;89.17;99055.66;5157911;28;20033;-85
2023/08/03 06:55:48;;;;;;;0.20;0.20;;;;;;;16.64;90.04;99047.00;5150862;28;20069;-85
2023/08/03 06:58:38;;;;;;;0.20;0.20;;;;;;;16.76;88.67;99046.97;5159972;28;20034;-87
2023/08/03 07:01:29;;;;;;;0.32;0.32;;;;;;;16.54;89.49;99056.63;5156832;28;20578;-86
2023/08/03 07:04:20;;;;;;;0.93;0.93;;;;;;;16.52;90.21;99059.41;5168571;28;20038;-86
2023/08/03 07:07:11;;;;;;;0.20;0.20;;;;;;;16.59;90.16;99065.03;5175884;28;20034;-86
2023/08/03 07:10:02;;;;;;;0.20;0.20;;;;;;;16.72;88.90;99085.28;5162245;28;20060;-86
2023/08/03 07:12:53;;;;;;;0.47;0.47;;;;;;;16.68;88.93;99080.22;5172212;28;20114;-87
2023/08/03 07:15:44;;;;;;;0.20;0.20;;;;;;;16.75;89.22;99087.66;5157991;28;20505;-86
2023/08/03 07:18:35;;;;;;;0.70;0.60;;;;;;;16.75;89.35;99095.59;5165303;28;20096;-85
2023/08/03 07:21:25;;;;;;;1.95;1.05;;;;;;;16.74;89.31;99099.22;5165801;28;20034;-85
2023/08/03 07:24:16;;;;;;;0.22;0.22;;;;;;;16.62;89.48;99115.13;5170022;28;20204;-85
2023/08/03 07:27:07;;;;;;;0.20;0.20;;;;;;;16.66;89.34;99119.19;5169957;28;20115;-85
2023/08/03 07:29:59;;;;;;;0.20;0.20;;;;;;;16.71;89.20;99121.50;5161969;28;20191;-85
2023/08/03 07:32:51;;;;;;;0.30;0.30;;;;;;;16.59;89.49;99123.28;5156356;28;20077;-85
2023/08/03 07:35:42;;;;;;;0.30;0.30;;;;;;;16.56;90.29;99134.16;5157354;28;20113;-86
2023/08/03 07:38:32;;;;;;;0.20;0.20;;;;;;;16.65;90.31;99136.03;5173823;28;20030;-86
2023/08/03 07:41:23;;;;;;;0.20;0.20;;;;;;;16.66;89.88;99129.78;5171495;28;20042;-86
2023/08/03 07:44:18;;;;;;;0.20;0.20;;;;;;;16.76;89.21;99155.56;5168268;28;20043;-86
2023/08/03 07:47:09;;;;;;;0.20;0.20;;;;;;;16.62;89.85;99154.84;5171528;28;20056;-86
2023/08/03 07:50:00;;;;;;;0.20;0.20;;;;;;;16.53;91.52;99174.09;5153127;28;20465;-86
2023/08/03 07:52:51;;;;;;;0.25;0.25;;;;;;;16.68;91.17;99180.84;5168275;28;20545;-87
2023/08/03 07:55:42;;;;;;;0.20;0.20;;;;;;;16.73;91.28;99177.00;5158833;28;20038;-87
2023/08/03 07:58:32;;;;;;;0.30;0.30;;;;;;;16.73;91.36;99192.91;5175299;28;20414;-86
2023/08/03 08:01:23;;;;;;;0.20;0.20;;;;;;;16.70;91.11;99187.81;5166644;28;20046;-87
2023/08/03 08:04:14;;;;;;;0.30;0.30;;;;;;;16.59;92.01;99192.13;5173860;28;20034;-87
2023/08/03 08:07:05;;;;;;;0.30;0.30;;;;;;;16.61;91.70;99202.63;5179490;28;20034;-88
2023/08/03 08:09:56;;;;;;;0.52;0.52;;;;;;;16.70;91.83;99198.41;5174228;28;20101;-87
2023/08/03 08:12:47;;;;;;;0.20;0.20;;;;;;;16.73;92.28;99201.66;5167378;28;20029;-87
2023/08/03 08:15:38;;;;;;;0.20;0.20;;;;;;;16.77;91.53;99199.63;5176663;28;20394;-87
2023/08/03 08:18:30;;;;;;;0.30;0.30;;;;;;;16.86;91.49;99213.97;5176316;28;20048;-86
2023/08/03 08:21:21;;;;;;;0.57;0.57;;;;;;;16.94;91.69;99217.75;5164190;28;20502;-86
2023/08/03 08:24:12;;;;;;;0.20;0.20;;;;;;;17.11;91.36;99223.53;5182342;28;20045;-87
2023/08/03 08:27:03;;;;;;;0.30;0.30;;;;;;;17.09;91.23;99221.00;5165898;28;20482;-86
2023/08/03 08:29:54;;;;;;;0.20;0.20;;;;;;;17.19;90.51;99226.41;5177441;28;20557;-86
2023/08/03 08:32:45;;;;;;;0.20;0.20;;;;;;;17.26;89.68;99237.41;5167478;28;20571;-85
2023/08/03 08:35:35;;;;;;;0.20;0.20;;;;;;;17.32;88.55;99242.19;5182767;28;20042;-86
2023/08/03 08:38:26;;;;;;;0.20;0.20;;;;;;;17.40;88.19;99234.47;5180008;28;20410;-85
2023/08/03 08:41:17;;;;;;;0.20;0.20;;;;;;;17.39;88.34;99255.81;5170353;28;20367;-86
2023/08/03 08:44:13;;;;;;;0.20;0.20;;;;;;;17.46;88.53;99244.59;5180917;28;20165;-85
2023/08/03 08:47:04;;;;;;;0.35;0.35;;;;;;;17.41;86.24;99248.56;5179725;28;20031;-84
2023/08/03 08:49:55;;;;;;;0.82;0.82;;;;;;;17.51;86.34;99254.84;5174754;28;20042;-86
2023/08/03 08:52:49;;;;;;;0.55;0.25;;;;;;;17.57;85.65;99251.69;5180016;28;20325;-86
2023/08/03 08:55:40;;;;;;;0.20;0.20;;;;;;;17.54;84.90;99264.34;5173783;28;20062;-86
2023/08/03 08:58:31;;;;;;;0.20;0.20;;;;;;;17.52;85.10;99268.97;5175178;28;20405;-86
2023/08/03 09:01:21;;;;;;;0.20;0.20;;;;;;;17.48;84.70;99272.78;5169878;28;20045;-86
2023/08/03 09:04:12;;;;;;;0.30;0.30;;;;;;;17.49;85.35;99280.63;5180986;28;20758;-86
2023/08/03 09:07:03;;;;;;;0.75;0.52;;;;;;;17.55;85.16;99269.56;5188343;28;20133;-86
2023/08/03 09:10:01;;;;;;;0.38;0.28;;;;;;;17.67;84.56;99288.09;5184309;28;20034;-84
2023/08/03 09:12:52;;;;;;;0.28;0.28;;;;;;;17.65;83.59;99279.41;5171933;28;20054;-86
2023/08/03 09:15:43;;;;;;;0.30;0.30;;;;;;;17.75;84.68;99296.28;5180284;28;20405;-86
2023/08/03 09:18:43;;;;;;;0.20;0.20;;;;;;;17.74;84.00;99306.06;5177528;28;20018;-87
2023/08/03 09:21:34;;;;;;;0.30;0.30;;;;;;;17.78;82.98;99306.66;5176362;28;20126;-85
2023/08/03 09:24:25;;;;;;;0.30;0.30;;;;;;;17.84;83.97;99300.03;5163489;28;20035;-85
2023/08/03 09:27:17;;;;;;;0.30;0.30;;;;;;;17.81;83.02;99308.22;5176461;28;20038;-86
2023/08/03 09:30:08;;;;;;;0.20;0.20;;;;;;;17.83;82.73;99307.13;5181707;28;20037;-87
2023/08/03 09:32:58;;;;;;;0.35;0.35;;;;;;;17.85;83.17;99313.16;5161174;28;20064;-86
2023/08/03 09:36:14;;;;;;;0.30;0.30;;;;;;;17.92;83.51;99303.72;5168829;28;20440;-86
2023/08/03 09:39:11;;;;;;;0.30;0.30;;;;;;;18.00;82.86;99312.91;5172379;28;20034;-86
2023/08/03 09:42:03;;;;;;;0.30;0.30;;;;;;;18.07;82.13;99306.13;5176612;28;20489;-86
2023/08/03 09:44:55;;;;;;;1.38;0.57;;;;;;;18.21;82.65;99312.97;5171857;28;20045;-86
2023/08/03 09:47:48;;;;;;;2.17;1.20;;;;;;;18.34;82.14;99316.34;5166447;28;20390;-85
2023/08/03 09:50:42;;;;;;;2.10;1.55;;;;;;;18.34;81.70;99323.44;5163521;28;20109;-86
2023/08/03 09:53:37;;;;;;;0.20;0.20;;;;;;;18.40;80.57;99317.63;5175449;28;20034;-86
2023/08/03 09:56:33;;;;;;;0.57;0.57;;;;;;;18.46;80.40;99333.06;5193045;28;20034;-85
2023/08/03 09:59:25;;;;;;;0.50;0.50;;;;;;;18.47;78.96;99324.09;5161652;28;20490;-85
2023/08/03 10:02:21;;;;;;;0.28;0.28;;;;;;;18.56;79.86;99327.81;5158208;28;20117;-86
2023/08/03 10:05:17;;;;;;;0.30;0.30;;;;;;;18.56;79.19;99336.63;5176309;28;20042;-86
2023/08/03 10:08:16;;;;;;;0.25;0.25;;;;;;;18.57;79.13;99348.13;5157705;28;20129;-86
2023/08/03 10:11:11;;;;;;;0.30;0.30;;;;;;;18.64;79.36;99359.06;5180848;28;20038;-85
2023/08/03 10:14:04;;;;;;;0.35;0.35;;;;;;;18.65;79.23;99358.94;5175385;28;20033;-86
2023/08/03 10:16:58;;;;;;;6.18;0.50;;;;;;;18.67;78.12;99358.81;5178131;28;20038;-86
2023/08/03 10:19:49;;;;;;;0.40;0.40;;;;;;;18.69;78.28;99371.00;5176524;28;20391;-86
2023/08/03 10:23:06;;;;;;;0.25;0.25;;;;;;;18.50;78.35;99371.66;5176013;28;20031;-85
2023/08/03 10:26:01;;;;;;;1.85;0.63;;;;;;;18.66;79.29;99363.28;5180718;28;20034;-86
2023/08/03 10:28:51;;;;;;;0.47;0.45;;;;;;;18.82;79.73;99376.13;5179210;28;20022;-85
2023/08/03 10:31:54;;;;;;;0.45;0.45;;;;;;;18.79;79.50;99359.59;5172408;28;20502;-87
2023/08/03 10:34:46;;;;;;;2.75;1.13;;;;;;;18.94;80.10;99376.94;5186765;28;20106;-87
2023/08/03 10:37:40;;;;;;;2.22;0.55;;;;;;;18.93;79.52;99382.41;5180062;28;20418;-87
2023/08/03 10:40:31;;;;;;;0.28;0.28;;;;;;;19.00;79.52;99383.56;5171380;28;20044;-88
2023/08/03 10:43:23;;;;;;;0.30;0.30;;;;;;;19.08;79.50;99386.44;5164213;28;20037;-87
2023/08/03 10:46:36;;;;;;;0.45;0.45;;;;;;;19.21;77.26;99390.72;5185594;28;20486;-86
2023/08/03 10:49:27;;;;;;;0.47;0.47;;;;;;;19.25;76.85;99397.47;5165593;28;20045;-86
2023/08/03 10:52:20;;;;;;;0.45;0.45;;;;;;;19.31;76.36;99404.91;5168583;28;20346;-86
2023/08/03 10:55:26;;;;;;;0.25;0.25;;;;;;;19.31;77.05;99402.25;5166840;28;20132;-87
2023/08/03 10:58:17;;;;;;;0.20;0.20;;;;;;;19.41;75.46;99405.00;5176722;28;20030;-87
2023/08/03 11:01:08;;;;;;;2.25;2.05;;;;;;;19.39;76.38;99410.41;5170577;28;20025;-86
2023/08/03 11:03:59;;;;;;;0.90;0.88;;;;;;;19.49;76.20;99421.97;5170815;28;20046;-87
2023/08/03 11:06:51;;;;;;;0.30;0.30;;;;;;;19.50;76.28;99423.66;5173102;28;20088;-87
2023/08/03 11:09:44;;;;;;;0.63;0.63;;;;;;;19.52;74.89;99420.84;5175518;28;20654;-87
2023/08/03 11:12:36;;;;;;;0.30;0.30;;;;;;;19.55;74.91;99422.41;5186810;28;20040;-87
2023/08/03 11:15:28;;;;;;;0.50;0.50;;;;;;;19.67;74.08;99445.31;5166740;28;20678;-88
2023/08/03 11:18:19;;;;;;;0.30;0.30;;;;;;;19.72;74.93;99442.25;5181667;28;20056;-86
2023/08/03 11:21:09;;;;;;;0.52;0.52;;;;;;;19.75;74.34;99442.84;5165266;28;20042;-87
2023/08/03 11:24:00;;;;;;;0.20;0.20;;;;;;;19.81;75.55;99447.63;5182187;28;20031;-88
2023/08/03 11:26:51;;;;;;;0.55;0.55;;;;;;;19.75;74.57;99448.16;5193751;28;20109;-86
2023/08/03 11:29:42;;;;;;;0.63;0.50;;;;;;;19.80;74.44;99437.94;5187591;28;20021;-87
2023/08/03 11:32:33;;;;;;;0.45;0.45;;;;;;;19.88;73.37;99447.13;5187907;28;20041;-88
2023/08/03 11:35:24;;;;;;;0.65;0.65;;;;;;;19.93;73.38;99455.56;5192065;28;20034;-88
2023/08/03 11:38:15;;;;;;;0.30;0.30;;;;;;;19.97;72.75;99464.94;5192944;28;20048;-87
2023/08/03 11:41:06;;;;;;;0.20;0.20;;;;;;;19.76;72.91;99486.25;5189195;28;20110;-88
2023/08/03 11:43:56;;;;;;;1.63;0.85;;;;;;;19.83;74.71;99476.78;5188045;28;20029;-87
2023/08/03 11:46:49;;;;;;;0.20;0.20;;;;;;;19.84;75.93;99483.78;5188561;28;20081;-87
2023/08/03 11:49:40;;;;;;;0.30;0.30;;;;;;;19.91;76.23;99486.78;5192295;28;20020;-87
2023/08/03 11:52:31;;;;;;;0.90;0.65;;;;;;;19.86;74.04;99500.50;5192469;28;20061;-87
2023/08/03 11:55:30;;;;;;;0.45;0.45;;;;;;;19.84;76.08;99505.06;5188169;28;20077;-87
2023/08/03 11:58:26;;;;;;;0.20;0.20;;;;;;;19.85;76.88;99512.09;5210144;28;20014;-88
2023/08/03 12:01:17;;;;;;;0.20;0.20;;;;;;;19.75;76.34;99504.03;5176921;28;20050;-87
2023/08/03 12:04:09;;;;;;;0.20;0.20;;;;;;;19.92;75.81;99512.44;5179278;28;20383;-87
2023/08/03 12:07:02;;;;;;;0.20;0.20;;;;;;;20.05;74.34;99518.38;5184578;28;20486;-84
2023/08/03 12:09:52;;;;;;;0.35;0.35;;;;;;;20.19;73.83;99525.19;5180964;28;20030;-86
2023/08/03 12:12:43;;;;;;;0.20;0.20;;;;;;;20.26;74.31;99521.00;5166162;28;20456;-86
2023/08/03 12:15:34;;;;;;;0.20;0.20;;;;;;;20.39;73.83;99520.78;5181127;28;20069;-85
2023/08/03 12:18:25;;;;;;;0.30;0.30;;;;;;;20.43;72.31;99527.53;5178327;28;20108;-85
2023/08/03 12:21:16;;;;;;;0.30;0.30;;;;;;;20.60;72.69;99522.53;5177616;28;20050;-85
2023/08/03 12:24:07;;;;;;;0.40;0.40;;;;;;;20.73;69.78;99533.81;5190215;28;20132;-86
2023/08/03 12:26:58;;;;;;;0.43;0.43;;;;;;;20.73;69.53;99535.66;5182495;28;20038;-85
2023/08/03 12:29:49;;;;;;;0.47;0.47;;;;;;;20.72;69.26;99553.44;5166927;28;20030;-85
2023/08/03 12:32:39;;;;;;;0.43;0.43;;;;;;;20.73;69.16;99547.16;5177328;28;20018;-86
2023/08/03 12:35:30;;;;;;;0.20;0.20;;;;;;;20.64;70.31;99563.91;5177810;28;20421;-85
2023/08/03 12:38:21;;;;;;;0.40;0.40;;;;;;;20.69;71.37;99574.19;5179656;28;20037;-85
2023/08/03 12:41:13;;;;;;;0.60;0.60;;;;;;;20.26;70.75;99581.44;5164980;28;20406;-85
2023/08/03 12:44:04;;;;;;;0.20;0.20;;;;;;;20.16;72.62;99583.19;5174396;28;20035;-85
2023/08/03 12:46:55;;;;;;;0.20;0.20;;;;;;;20.10;73.06;99590.75;5175824;28;20489;-85
2023/08/03 12:49:46;;;;;;;0.30;0.30;;;;;;;20.27;73.23;99585.78;5174924;28;20038;-85
2023/08/03 12:52:37;;;;;;;0.20;0.20;;;;;;;20.44;72.67;99597.63;5165927;28;20022;-86
2023/08/03 12:55:27;;;;;;;0.60;0.60;;;;;;;20.62;71.19;99587.19;5178719;28;20045;-86
2023/08/03 12:58:18;;;;;;;0.20;0.20;;;;;;;20.64;69.91;99605.72;5201094;28;20026;-85
2023/08/03 13:01:10;;;;;;;0.45;0.45;;;;;;;20.50;70.14;99588.28;5165579;28;20130;-86
2023/08/03 13:04:00;;;;;;;0.20;0.20;;;;;;;20.50;69.98;99602.41;5196031;28;20036;-86
2023/08/03 13:06:51;;;;;;;0.60;0.60;;;;;;;20.20;71.09;99601.44;5172410;28;20042;-86
2023/08/03 13:09:42;;;;;;;0.38;0.38;;;;;;;20.25;70.14;99617.03;5183280;28;20034;-87
2023/08/03 13:12:33;;;;;;;0.20;0.20;;;;;;;20.36;70.16;99622.28;5168279;28;20022;-86
2023/08/03 13:15:24;;;;;;;0.30;0.30;;;;;;;20.29;70.47;99608.66;5178396;28;20033;-86
2023/08/03 13:18:15;;;;;;;0.57;0.47;;;;;;;20.19;70.92;99614.91;5166676;28;20517;-86
2023/08/03 13:21:06;;;;;;;0.20;0.20;;;;;;;20.17;70.27;99624.81;5179605;28;20104;-86
2023/08/03 13:23:57;;;;;;;0.30;0.30;;;;;;;20.17;70.70;99627.50;5179943;28;20613;-86
2023/08/03 13:26:49;;;;;;;1.75;0.40;;;;;;;20.07;70.49;99644.25;5193453;28;20048;-86
2023/08/03 13:29:47;;;;;;;0.20;0.20;;;;;;;20.07;70.21;99643.41;5163926;28;20030;-86